Time;durP1;ratioP1;P1;durP2;ratioP2;P2;SDS_P1;SDS_P2;PMS_P1;PMS_P2;Temp;Humidity;BMP_temperature;BMP_pressure;BME280_temperature;BME280_humidity;BME280_pressure;Samples;Min_cycle;Max_cycle;Signal;HPM_P1;HPM_P2
2020/12/16 05:45:55;;;;;;;13.82;9.32;;;;;;;;;;6234368;22;884244;-79
2020/12/16 05:48:27;;;;;;;14.60;9.93;;;;;;;;;;6281523;22;20035;-79
2020/12/16 05:50:54;;;;;;;13.00;8.88;;;;;;;;;;6281346;22;20314;-79
2020/12/16 05:53:29;;;;;;;12.73;9.13;;;;;;;;;;6280741;22;20003;-78
2020/12/16 05:55:59;;;;;;;14.07;8.93;;;;;;;;;;6281474;22;20354;-78
2020/12/16 05:58:32;;;;;;;11.95;8.82;;;;;;;;;;6281933;22;20004;-79
2020/12/16 06:01:00;;;;;;;12.40;8.05;;;;;;;;;;6281171;22;19996;-77
2020/12/16 06:03:29;;;;;;;12.95;8.50;;;;;;;;;;6272641;22;20004;-77
2020/12/16 06:05:56;;;;;;;12.35;7.65;;;;;;;;;;6274384;22;20452;-77
2020/12/16 06:08:24;;;;;;;10.13;7.32;;;;;;;;;;6274549;22;19999;-77
2020/12/16 06:13:12;;;;;;;19.85;9.95;;;;;;;;;;5082251;27;20390;-79
2020/12/16 06:15:48;;;;;;;19.58;10.07;;;;;;;;;;5086728;28;20035;-79
2020/12/16 06:18:17;;;;;;;13.32;9.38;;;;;;;;;;5087483;28;20032;-78
2020/12/16 06:20:43;;;;;;;14.15;8.82;;;;;;;;;;5087215;28;20036;-79
2020/12/16 06:23:29;;;;;;;10.93;8.48;;;;;;;;;;5087111;28;20376;-79
2020/12/16 06:25:56;;;;;;;12.73;8.57;;;;;;;;;;5087360;28;20020;-79
2020/12/16 06:28:22;;;;;;;13.93;9.32;;;;;;;;;;5087758;28;20024;-79
2020/12/16 06:30:53;;;;;;;14.98;9.27;;;;;;;;;;5093461;28;20027;-79
2020/12/16 06:35:37;;;;;;;10.93;7.07;;;;;;;;;;5082608;27;20387;-79
2020/12/16 06:38:17;;;;;;;12.80;7.97;;;;;;;;;;5071263;28;20052;-78
2020/12/16 06:40:45;;;;;;;11.77;7.47;;;;;;;;;;5072120;28;20028;-78
2020/12/16 06:43:35;;;;;;;11.20;6.90;;;;;;;;;;5071707;28;20512;-79
2020/12/16 06:46:01;;;;;;;9.20;6.45;;;;;;;;;;5072429;28;20109;-78
2020/12/16 06:48:34;;;;;;;11.18;7.75;;;;;;;;;;5064020;28;20370;-79
2020/12/16 06:51:19;;;;;;;9.10;6.05;;;;;;;;;;5072468;28;20063;-78
2020/12/16 06:53:45;;;;;;;9.98;6.55;;;;;;;;;;5065894;28;20388;-79
2020/12/16 06:56:12;;;;;;;9.10;6.00;;;;;;;;;;5071461;28;20050;-79
2020/12/16 06:58:38;;;;;;;9.15;6.88;;;;;;;;;;5072150;28;20051;-78
2020/12/16 07:01:11;;;;;;;14.10;8.40;;;;;;;;;;5072536;28;20468;-78
2020/12/16 07:03:37;;;;;;;14.13;8.68;;;;;;;;;;5071699;28;20050;-79
2020/12/16 07:06:03;;;;;;;14.60;9.07;;;;;;;;;;5072165;28;20536;-79
2020/12/16 07:08:29;;;;;;;15.27;10.55;;;;;;;;;;5071886;28;20032;-79
2020/12/16 07:10:56;;;;;;;22.17;13.40;;;;;;;;;;5071881;28;20032;-79
2020/12/16 07:13:35;;;;;;;23.13;13.70;;;;;;;;;;5071302;28;20025;-79
2020/12/16 07:16:03;;;;;;;26.45;14.40;;;;;;;;;;5071958;28;20023;-78
2020/12/16 07:18:48;;;;;;;30.38;16.38;;;;;;;;;;5071350;28;20029;-77
2020/12/16 07:21:14;;;;;;;34.88;16.30;;;;;;;;;;5069102;28;20021;-79
2020/12/16 07:23:42;;;;;;;22.67;13.27;;;;;;;;;;5071587;28;20029;-79
2020/12/16 07:26:08;;;;;;;25.65;12.63;;;;;;;;;;5071430;28;20025;-79
2020/12/16 07:28:38;;;;;;;24.48;13.48;;;;;;;;;;5071367;28;20124;-79
2020/12/16 07:31:05;;;;;;;22.85;12.45;;;;;;;;;;5070780;28;20027;-79
2020/12/16 07:33:31;;;;;;;19.65;11.98;;;;;;;;;;5070312;28;20036;-78
2020/12/16 07:35:59;;;;;;;22.45;11.60;;;;;;;;;;5070681;28;20086;-78
2020/12/16 07:38:25;;;;;;;18.05;10.68;;;;;;;;;;5070550;28;20488;-79
2020/12/16 07:40:57;;;;;;;19.85;10.73;;;;;;;;;;5070585;28;20025;-79
2020/12/16 07:43:23;;;;;;;20.13;10.60;;;;;;;;;;5069996;28;20028;-79
2020/12/16 07:46:05;;;;;;;16.23;10.07;;;;;;;;;;5063958;28;20052;-79
2020/12/16 07:48:31;;;;;;;17.73;10.48;;;;;;;;;;5049890;28;20025;-79
2020/12/16 07:50:58;;;;;;;15.02;9.60;;;;;;;;;;5057735;28;20032;-78
2020/12/16 07:53:24;;;;;;;15.57;9.68;;;;;;;;;;5057034;28;20096;-78
2020/12/16 07:55:56;;;;;;;15.82;9.70;;;;;;;;;;5057365;28;20114;-79
2020/12/16 08:00:40;;;;;;;18.10;10.32;;;;;;;;;;5114354;27;20427;-78
2020/12/16 08:03:06;;;;;;;17.13;9.98;;;;;;;;;;5121668;28;20028;-78
2020/12/16 08:05:32;;;;;;;14.43;8.68;;;;;;;;;;5120509;28;20031;-78
2020/12/16 08:08:01;;;;;;;15.00;9.20;;;;;;;;;;5110915;28;20452;-78
2020/12/16 08:10:28;;;;;;;16.02;8.68;;;;;;;;;;5107955;28;20012;-79
2020/12/16 08:12:54;;;;;;;14.45;9.68;;;;;;;;;;5117868;28;20032;-78
2020/12/16 08:15:20;;;;;;;15.65;9.02;;;;;;;;;;5119040;28;20020;-78
2020/12/16 08:17:47;;;;;;;14.30;9.57;;;;;;;;;;5118019;28;20375;-78
2020/12/16 08:20:16;;;;;;;19.35;9.00;;;;;;;;;;5125491;28;20028;-79
2020/12/16 08:22:43;;;;;;;18.00;11.50;;;;;;;;;;5117833;28;20027;-78
2020/12/16 08:25:10;;;;;;;18.55;11.35;;;;;;;;;;5118990;28;20034;-79
2020/12/16 08:27:37;;;;;;;15.43;11.00;;;;;;;;;;5118928;28;20110;-78
2020/12/16 08:30:07;;;;;;;19.63;12.20;;;;;;;;;;5119242;28;20031;-79
2020/12/16 08:32:37;;;;;;;16.77;11.00;;;;;;;;;;5117251;28;20028;-79
2020/12/16 08:35:05;;;;;;;21.20;12.95;;;;;;;;;;5121842;28;20096;-78
2020/12/16 08:37:34;;;;;;;24.23;15.52;;;;;;;;;;5113337;28;20050;-78
2020/12/16 08:40:03;;;;;;;27.33;18.40;;;;;;;;;;5123327;28;20080;-79
2020/12/16 08:42:29;;;;;;;28.40;18.38;;;;;;;;;;5109596;28;20020;-78
2020/12/16 08:45:05;;;;;;;37.00;21.92;;;;;;;;;;5123451;28;20023;-78
2020/12/16 08:47:31;;;;;;;35.30;21.88;;;;;;;;;;5113052;28;20027;-79
2020/12/16 08:49:57;;;;;;;31.42;20.00;;;;;;;;;;5113085;28;20381;-79
2020/12/16 08:52:23;;;;;;;32.58;20.48;;;;;;;;;;5124883;28;20027;-79
2020/12/16 08:54:49;;;;;;;28.58;18.88;;;;;;;;;;5110023;28;20024;-79
2020/12/16 08:57:18;;;;;;;30.55;19.13;;;;;;;;;;5124788;28;20156;-78
2020/12/16 08:59:44;;;;;;;33.58;20.27;;;;;;;;;;5113163;28;20032;-79
2020/12/16 09:02:10;;;;;;;36.05;22.10;;;;;;;;;;5125136;28;20076;-78
2020/12/16 09:09:14;;;;;;;28.48;17.33;;;;;;;;;;5110656;27;20410;-78
2020/12/16 09:11:47;;;;;;;26.58;17.77;;;;;;;;;;5104190;28;20046;-78
2020/12/16 09:14:12;;;;;;;24.15;16.27;;;;;;;;;;5110030;28;20434;-78
2020/12/16 09:16:38;;;;;;;22.00;15.23;;;;;;;;;;5106563;28;20028;-78
2020/12/16 09:19:04;;;;;;;20.90;13.52;;;;;;;;;;5110333;28;20054;-78
2020/12/16 09:23:53;;;;;;;21.80;15.35;;;;;;;;;;5118259;27;20400;-78
2020/12/16 09:26:19;;;;;;;20.77;15.65;;;;;;;;;;5109763;28;20033;-78
2020/12/16 09:28:45;;;;;;;21.83;15.18;;;;;;;;;;5084009;28;20484;-79
2020/12/16 09:31:14;;;;;;;20.30;13.70;;;;;;;;;;5080369;28;20017;-79
2020/12/16 09:33:40;;;;;;;20.45;14.90;;;;;;;;;;5082742;28;20032;-77
2020/12/16 09:36:06;;;;;;;19.42;12.80;;;;;;;;;;5080382;28;20067;-77
2020/12/16 09:38:32;;;;;;;18.92;13.93;;;;;;;;;;5078074;28;20032;-79
2020/12/16 09:40:59;;;;;;;18.23;11.90;;;;;;;;;;5069458;28;20158;-78
2020/12/16 09:43:38;;;;;;;19.40;14.60;;;;;;;;;;5069188;28;20028;-79
2020/12/16 09:46:33;;;;;;;17.27;12.20;;;;;;;;;;5068937;28;20021;-79
2020/12/16 09:48:59;;;;;;;15.05;11.05;;;;;;;;;;5060892;28;20043;-77
2020/12/16 09:51:25;;;;;;;17.23;10.70;;;;;;;;;;5068846;28;20032;-80
2020/12/16 09:53:52;;;;;;;18.98;10.80;;;;;;;;;;5074462;28;20033;-78
2020/12/16 09:56:22;;;;;;;17.10;11.23;;;;;;;;;;5085353;28;20100;-80
2020/12/16 09:58:48;;;;;;;18.75;9.60;;;;;;;;;;5075240;28;20100;-80
2020/12/16 10:01:14;;;;;;;13.82;9.77;;;;;;;;;;5076662;28;20530;-80
2020/12/16 10:03:40;;;;;;;12.63;8.73;;;;;;;;;;5072513;28;20029;-80
2020/12/16 10:06:11;;;;;;;18.42;11.93;;;;;;;;;;5080168;28;20024;-77
2020/12/16 10:08:37;;;;;;;33.92;21.35;;;;;;;;;;5090152;28;20028;-78
2020/12/16 10:11:03;;;;;;;24.35;16.70;;;;;;;;;;5088725;28;20028;-77
2020/12/16 10:13:29;;;;;;;24.17;14.60;;;;;;;;;;5090966;28;20029;-79
2020/12/16 10:15:55;;;;;;;25.17;14.65;;;;;;;;;;5088680;28;20419;-78
2020/12/16 10:18:21;;;;;;;20.25;13.32;;;;;;;;;;5091965;28;20112;-80
2020/12/16 10:20:46;;;;;;;18.50;11.27;;;;;;;;;;5077027;28;20056;-80
2020/12/16 10:25:45;;;;;;;18.33;11.45;;;;;;;;;;5121028;27;20490;-80
2020/12/16 10:28:11;;;;;;;18.98;11.85;;;;;;;;;;5113195;28;20027;-80
2020/12/16 10:30:37;;;;;;;16.73;10.52;;;;;;;;;;5125358;28;20000;-77
2020/12/16 10:33:04;;;;;;;14.20;9.05;;;;;;;;;;5124549;28;20035;-79
2020/12/16 10:35:30;;;;;;;18.13;11.23;;;;;;;;;;5108036;28;20024;-79
2020/12/16 10:37:55;;;;;;;30.05;14.40;;;;;;;;;;5105354;28;20383;-80
2020/12/16 10:40:22;;;;;;;20.90;11.27;;;;;;;;;;5105299;28;20070;-80
2020/12/16 10:42:48;;;;;;;22.02;13.15;;;;;;;;;;5102688;28;20024;-80
2020/12/16 10:45:14;;;;;;;19.02;11.50;;;;;;;;;;5105993;28;20039;-80
2020/12/16 10:47:41;;;;;;;16.35;10.10;;;;;;;;;;5107244;28;20023;-80
2020/12/16 10:52:40;;;;;;;16.85;9.40;;;;;;;;;;5115458;27;20836;-81
2020/12/16 10:55:06;;;;;;;13.95;9.07;;;;;;;;;;5087298;28;20042;-81
2020/12/16 10:57:32;;;;;;;13.35;8.38;;;;;;;;;;5106863;28;20074;-81
2020/12/16 10:59:58;;;;;;;12.35;7.80;;;;;;;;;;5106263;28;20044;-81
2020/12/16 11:02:24;;;;;;;14.90;8.35;;;;;;;;;;5103843;28;20020;-81
2020/12/16 11:04:50;;;;;;;11.98;7.78;;;;;;;;;;5105110;28;20028;-81
2020/12/16 11:07:16;;;;;;;12.23;8.10;;;;;;;;;;5104851;28;20024;-81
2020/12/16 11:09:42;;;;;;;12.02;7.45;;;;;;;;;;5102596;28;20111;-81
2020/12/16 11:12:08;;;;;;;14.15;8.13;;;;;;;;;;5109137;28;20039;-81
2020/12/16 11:14:34;;;;;;;13.52;7.63;;;;;;;;;;5110826;28;20016;-81
2020/12/16 11:17:00;;;;;;;12.27;8.07;;;;;;;;;;5105053;28;20015;-81
2020/12/16 11:19:26;;;;;;;12.07;8.52;;;;;;;;;;5107885;28;20384;-81
2020/12/16 11:21:53;;;;;;;11.27;7.43;;;;;;;;;;5109491;28;20091;-81
2020/12/16 11:24:20;;;;;;;11.30;7.38;;;;;;;;;;5100931;28;20032;-81
2020/12/16 11:26:47;;;;;;;10.25;7.15;;;;;;;;;;5105243;28;20056;-80
2020/12/16 11:29:14;;;;;;;10.65;7.05;;;;;;;;;;5108527;28;20093;-80
2020/12/16 11:31:47;;;;;;;9.07;6.25;;;;;;;;;;5106526;28;20032;-80
2020/12/16 11:34:13;;;;;;;15.82;9.63;;;;;;;;;;5110336;28;20475;-80
2020/12/16 11:36:41;;;;;;;10.60;7.25;;;;;;;;;;5111499;28;20024;-80
2020/12/16 11:39:07;;;;;;;10.05;6.65;;;;;;;;;;5107828;28;20026;-80
2020/12/16 11:41:34;;;;;;;9.27;6.72;;;;;;;;;;5109407;28;20020;-80
2020/12/16 11:44:00;;;;;;;9.63;6.50;;;;;;;;;;5108454;28;20032;-79
2020/12/16 11:46:30;;;;;;;9.23;6.00;;;;;;;;;;5103895;28;20036;-79
2020/12/16 11:48:57;;;;;;;9.23;5.55;;;;;;;;;;5108169;28;20024;-80
2020/12/16 11:51:23;;;;;;;13.43;6.90;;;;;;;;;;5102175;28;20035;-80
2020/12/16 11:53:48;;;;;;;9.98;6.00;;;;;;;;;;5108888;28;20391;-80
2020/12/16 11:56:14;;;;;;;8.98;5.75;;;;;;;;;;5108046;28;20027;-78
2020/12/16 11:58:40;;;;;;;7.63;5.05;;;;;;;;;;5103614;28;20030;-78
2020/12/16 12:01:06;;;;;;;11.27;7.50;;;;;;;;;;5106052;28;20115;-78
2020/12/16 12:03:32;;;;;;;12.00;7.78;;;;;;;;;;5115405;22;20446;-86
2020/12/16 12:08:31;;;;;;;15.38;8.30;;;;;;;;;;5109204;27;20430;-80
2020/12/16 12:10:57;;;;;;;26.63;10.80;;;;;;;;;;5083270;28;20043;-79
2020/12/16 12:13:23;;;;;;;18.85;8.27;;;;;;;;;;5100427;28;20020;-78
2020/12/16 12:15:49;;;;;;;9.57;7.28;;;;;;;;;;5107376;28;20016;-78
2020/12/16 12:18:15;;;;;;;11.85;5.60;;;;;;;;;;5110444;28;20020;-81
2020/12/16 12:20:41;;;;;;;11.73;5.65;;;;;;;;;;5103488;28;20016;-80
2020/12/16 12:23:07;;;;;;;8.05;5.13;;;;;;;;;;5103182;28;20103;-81
2020/12/16 12:25:32;;;;;;;7.40;4.88;;;;;;;;;;5104434;28;21138;-79
2020/12/16 12:27:58;;;;;;;8.68;5.30;;;;;;;;;;5101922;28;20032;-79
2020/12/16 12:30:24;;;;;;;8.63;4.70;;;;;;;;;;5108244;28;20024;-80
2020/12/16 12:32:50;;;;;;;9.40;5.35;;;;;;;;;;5103135;28;20035;-80
2020/12/16 12:37:48;;;;;;;8.70;4.65;;;;;;;;;;5110841;27;20867;-81
2020/12/16 12:40:14;;;;;;;7.35;4.68;;;;;;;;;;5084565;28;20105;-81
2020/12/16 12:42:40;;;;;;;8.88;5.28;;;;;;;;;;5083455;28;20506;-80
2020/12/16 12:45:06;;;;;;;8.18;5.43;;;;;;;;;;5098869;28;20492;-79
2020/12/16 12:47:33;;;;;;;7.35;4.50;;;;;;;;;;5095810;28;20032;-80
2020/12/16 12:59:38;;;;;;;8.85;5.10;;;;;;;;;;5062744;28;20036;-80
2020/12/16 13:17:58;;;;;;;9.68;5.57;;;;;;;;;;5059334;28;20048;-80
2020/12/16 13:21:15;;;;;;;8.60;4.30;;;;;;;;;;5060094;28;20028;-80
2020/12/16 13:33:10;;;;;;;8.63;4.65;;;;;;;;;;5083595;28;20081;-81
2020/12/16 13:35:36;;;;;;;7.28;4.28;;;;;;;;;;5093711;28;20419;-81
2020/12/16 13:38:02;;;;;;;10.23;4.88;;;;;;;;;;5098989;28;20039;-79
2020/12/16 13:40:28;;;;;;;8.82;4.47;;;;;;;;;;5097355;28;20495;-81
2020/12/16 13:42:54;;;;;;;7.50;4.45;;;;;;;;;;5093343;28;20020;-81
2020/12/16 13:45:20;;;;;;;6.80;4.22;;;;;;;;;;5096506;28;20051;-78
2020/12/16 13:47:46;;;;;;;8.20;4.10;;;;;;;;;;5090791;28;20024;-81
2020/12/16 13:50:12;;;;;;;18.50;6.20;;;;;;;;;;5078571;28;20104;-79
2020/12/16 13:52:39;;;;;;;10.63;5.18;;;;;;;;;;5077070;28;20052;-80
2020/12/16 13:55:05;;;;;;;8.73;5.53;;;;;;;;;;5064896;28;20075;-81
2020/12/16 13:57:31;;;;;;;9.02;3.80;;;;;;;;;;5083804;28;20039;-79
2020/12/16 13:59:57;;;;;;;7.13;4.10;;;;;;;;;;5084333;28;20032;-79
2020/12/16 14:02:23;;;;;;;6.00;3.90;;;;;;;;;;5082627;28;20036;-81
2020/12/16 14:04:49;;;;;;;7.82;3.80;;;;;;;;;;5082205;28;20024;-81
2020/12/16 14:07:15;;;;;;;6.57;4.15;;;;;;;;;;5082511;28;20056;-79
2020/12/16 14:09:41;;;;;;;6.93;4.38;;;;;;;;;;5083085;28;20482;-81
2020/12/16 14:12:07;;;;;;;5.25;3.30;;;;;;;;;;5085994;28;20028;-81
2020/12/16 14:14:34;;;;;;;5.57;3.58;;;;;;;;;;5079441;28;20156;-79
2020/12/16 14:17:01;;;;;;;5.13;3.45;;;;;;;;;;5076633;28;20479;-79
2020/12/16 14:19:27;;;;;;;7.50;4.07;;;;;;;;;;5078417;28;20039;-79
2020/12/16 14:21:57;;;;;;;8.35;4.00;;;;;;;;;;5079315;28;20017;-79
2020/12/16 14:24:23;;;;;;;5.97;3.40;;;;;;;;;;5077297;28;20027;-80
2020/12/16 14:26:49;;;;;;;8.75;4.72;;;;;;;;;;5077560;28;20112;-79
2020/12/16 14:29:15;;;;;;;7.70;3.25;;;;;;;;;;5073269;28;20480;-78
2020/12/16 14:31:41;;;;;;;8.10;3.92;;;;;;;;;;5074149;28;20040;-79
2020/12/16 14:34:07;;;;;;;6.47;3.40;;;;;;;;;;5076425;28;20048;-79
2020/12/16 14:39:09;;;;;;;11.68;7.13;;;;;;;;;;5109849;27;20415;-80
2020/12/16 14:41:35;;;;;;;9.10;5.40;;;;;;;;;;5085459;28;20035;-81
2020/12/16 14:44:00;;;;;;;7.72;4.53;;;;;;;;;;5102442;28;20026;-81
2020/12/16 14:46:26;;;;;;;5.60;3.17;;;;;;;;;;5106885;28;20027;-82
2020/12/16 14:48:52;;;;;;;10.15;4.72;;;;;;;;;;5099160;28;20039;-81
2020/12/16 14:51:18;;;;;;;6.28;3.75;;;;;;;;;;5100651;28;20096;-81
2020/12/16 14:53:44;;;;;;;7.65;4.10;;;;;;;;;;5106422;28;20523;-82
2020/12/16 14:56:11;;;;;;;9.40;4.45;;;;;;;;;;5103757;28;20076;-80
2020/12/16 14:58:37;;;;;;;13.93;5.88;;;;;;;;;;5103613;28;20146;-81
2020/12/16 15:01:03;;;;;;;18.48;7.43;;;;;;;;;;5096865;28;20097;-82
2020/12/16 15:03:29;;;;;;;7.88;4.70;;;;;;;;;;5102762;28;20078;-81
2020/12/16 15:05:55;;;;;;;7.68;4.65;;;;;;;;;;5103676;28;20036;-81
2020/12/16 15:08:21;;;;;;;8.43;5.05;;;;;;;;;;5109441;28;20023;-83
2020/12/16 15:10:47;;;;;;;9.60;4.75;;;;;;;;;;5100005;28;20032;-83
2020/12/16 15:13:13;;;;;;;8.05;4.60;;;;;;;;;;5104059;28;20514;-81
2020/12/16 15:15:38;;;;;;;36.03;15.90;;;;;;;;;;5104999;28;20027;-82
2020/12/16 15:18:05;;;;;;;36.42;20.67;;;;;;;;;;5105308;28;20043;-81
2020/12/16 15:20:31;;;;;;;30.60;18.38;;;;;;;;;;5107575;28;20028;-82
2020/12/16 15:22:57;;;;;;;41.95;19.88;;;;;;;;;;5110635;28;20024;-83
2020/12/16 15:25:24;;;;;;;32.22;12.25;;;;;;;;;;5107990;28;20012;-81
2020/12/16 15:27:50;;;;;;;21.38;10.70;;;;;;;;;;5104161;28;20430;-82
2020/12/16 15:30:16;;;;;;;34.45;12.45;;;;;;;;;;5104732;28;20470;-82
2020/12/16 15:32:42;;;;;;;32.83;13.35;;;;;;;;;;5105705;28;20107;-82
2020/12/16 15:35:09;;;;;;;49.60;9.25;;;;;;;;;;5103877;28;20058;-82
2020/12/16 15:37:36;;;;;;;13.73;6.32;;;;;;;;;;5104220;28;20571;-81
2020/12/16 15:40:03;;;;;;;14.00;6.32;;;;;;;;;;5095208;28;20119;-83
2020/12/16 15:42:30;;;;;;;35.50;12.52;;;;;;;;;;5102837;28;20116;-81
2020/12/16 15:44:56;;;;;;;30.40;12.95;;;;;;;;;;5104278;28;20028;-83
2020/12/16 15:47:22;;;;;;;43.88;9.73;;;;;;;;;;5105751;28;20039;-83
2020/12/16 15:49:48;;;;;;;19.17;6.40;;;;;;;;;;5102525;28;20108;-83
2020/12/16 15:52:15;;;;;;;10.40;4.95;;;;;;;;;;5099786;28;20059;-83
2020/12/16 15:57:13;;;;;;;49.05;15.55;;;;;;;;;;5120365;27;20450;-81
2020/12/16 15:59:39;;;;;;;44.75;15.52;;;;;;;;;;5090363;28;20430;-82
2020/12/16 16:02:05;;;;;;;44.97;14.68;;;;;;;;;;5093313;28;20021;-82
2020/12/16 16:04:31;;;;;;;32.28;11.30;;;;;;;;;;5093085;28;20044;-82
2020/12/16 16:06:57;;;;;;;28.65;10.10;;;;;;;;;;5086665;28;20025;-80
2020/12/16 16:09:23;;;;;;;32.30;8.88;;;;;;;;;;5087082;28;20025;-80
2020/12/16 16:11:52;;;;;;;17.92;7.88;;;;;;;;;;5090099;28;20035;-81
2020/12/16 16:14:18;;;;;;;23.73;6.90;;;;;;;;;;5084531;28;20020;-80
2020/12/16 16:16:45;;;;;;;30.58;9.48;;;;;;;;;;5082735;28;20078;-80
2020/12/16 16:19:12;;;;;;;24.25;9.23;;;;;;;;;;5082398;28;20025;-81
2020/12/16 16:21:38;;;;;;;31.63;9.80;;;;;;;;;;5082613;28;20759;-79
2020/12/16 16:24:06;;;;;;;36.35;7.55;;;;;;;;;;5086030;28;20035;-78
2020/12/16 16:26:33;;;;;;;17.88;5.88;;;;;;;;;;5084072;28;20759;-80
2020/12/16 16:28:59;;;;;;;25.02;8.55;;;;;;;;;;5084624;28;20088;-81
2020/12/16 16:31:25;;;;;;;32.13;10.20;;;;;;;;;;5088434;28;20546;-81
2020/12/16 16:33:51;;;;;;;38.60;11.88;;;;;;;;;;5078665;28;20024;-80
2020/12/16 16:36:17;;;;;;;38.22;10.55;;;;;;;;;;5085702;28;20032;-79
2020/12/16 16:38:43;;;;;;;46.65;13.70;;;;;;;;;;5078069;28;20094;-80
2020/12/16 16:41:09;;;;;;;49.28;17.48;;;;;;;;;;5080237;28;20722;-77
2020/12/16 16:43:37;;;;;;;47.30;12.68;;;;;;;;;;5084492;28;20052;-79
2020/12/16 16:46:03;;;;;;;40.03;12.10;;;;;;;;;;5080918;28;20107;-78
2020/12/16 16:48:30;;;;;;;61.88;20.00;;;;;;;;;;5082678;28;20063;-78
2020/12/16 16:50:57;;;;;;;59.15;15.82;;;;;;;;;;5079983;28;20031;-80
2020/12/16 16:53:23;;;;;;;37.72;10.63;;;;;;;;;;5085717;28;20058;-81
2020/12/16 16:55:49;;;;;;;23.70;8.25;;;;;;;;;;5082076;28;20115;-79
2020/12/16 16:58:15;;;;;;;29.48;10.25;;;;;;;;;;5077577;28;20052;-79
2020/12/16 17:00:41;;;;;;;26.70;9.35;;;;;;;;;;5081025;28;20025;-80
2020/12/16 17:03:07;;;;;;;57.65;13.38;;;;;;;;;;5083133;28;20024;-81
2020/12/16 17:05:33;;;;;;;22.17;11.63;;;;;;;;;;5079842;28;20032;-80
2020/12/16 17:07:59;;;;;;;56.42;17.80;;;;;;;;;;5070653;28;20461;-81
2020/12/16 17:10:26;;;;;;;40.03;16.27;;;;;;;;;;5068285;28;20565;-81
2020/12/16 17:12:53;;;;;;;83.82;21.60;;;;;;;;;;5064043;28;20040;-80
2020/12/16 17:15:19;;;;;;;50.95;19.00;;;;;;;;;;5073630;28;20021;-81
2020/12/16 17:17:46;;;;;;;38.15;14.73;;;;;;;;;;5065203;28;20028;-80
2020/12/16 17:20:12;;;;;;;28.27;12.00;;;;;;;;;;5070694;28;20073;-78
2020/12/16 17:22:38;;;;;;;20.48;10.90;;;;;;;;;;5067435;28;20025;-80
2020/12/16 17:25:04;;;;;;;25.55;9.18;;;;;;;;;;5072071;28;20088;-79
2020/12/16 17:27:30;;;;;;;32.15;8.57;;;;;;;;;;5065659;28;20388;-78
2020/12/16 17:29:56;;;;;;;31.83;9.90;;;;;;;;;;5071233;28;20017;-80
2020/12/16 17:32:22;;;;;;;25.65;7.50;;;;;;;;;;5070917;28;20396;-79
2020/12/16 17:34:49;;;;;;;34.22;8.95;;;;;;;;;;5067270;28;20032;-79
2020/12/16 17:37:15;;;;;;;22.30;6.50;;;;;;;;;;5065997;28;20025;-80
2020/12/16 17:39:41;;;;;;;19.23;7.22;;;;;;;;;;5072660;28;20024;-77
2020/12/16 17:42:07;;;;;;;21.27;7.43;;;;;;;;;;5073839;28;20028;-79
2020/12/16 17:44:33;;;;;;;26.95;8.15;;;;;;;;;;5073642;28;20041;-79
2020/12/16 17:47:04;;;;;;;21.92;8.88;;;;;;;;;;5070285;28;20048;-79
2020/12/16 17:49:30;;;;;;;28.42;10.93;;;;;;;;;;5067453;28;20024;-80
2020/12/16 17:51:56;;;;;;;20.33;9.45;;;;;;;;;;5068195;28;20135;-80
2020/12/16 17:54:22;;;;;;;31.80;11.75;;;;;;;;;;5069004;28;20087;-80
2020/12/16 17:56:48;;;;;;;51.45;24.85;;;;;;;;;;5071519;28;20036;-80
2020/12/16 17:59:16;;;;;;;45.45;22.42;;;;;;;;;;5071366;28;20477;-79
2020/12/16 18:01:42;;;;;;;46.90;23.23;;;;;;;;;;5068822;28;20036;-78
2020/12/16 18:04:08;;;;;;;32.97;18.85;;;;;;;;;;5064126;28;20035;-78
2020/12/16 18:06:34;;;;;;;27.02;11.60;;;;;;;;;;5067783;28;20420;-78
2020/12/16 18:09:00;;;;;;;37.72;13.10;;;;;;;;;;5068550;28;20389;-81
2020/12/16 18:11:27;;;;;;;24.73;9.98;;;;;;;;;;5069551;28;20369;-80
2020/12/16 18:13:53;;;;;;;17.17;7.78;;;;;;;;;;5076111;28;20032;-81
2020/12/16 18:16:19;;;;;;;22.48;6.45;;;;;;;;;;5068307;28;20024;-81
2020/12/16 18:18:45;;;;;;;12.63;7.30;;;;;;;;;;5066820;28;20520;-80
2020/12/16 18:21:11;;;;;;;11.57;6.85;;;;;;;;;;5069580;28;20106;-81
2020/12/16 18:23:37;;;;;;;21.45;7.88;;;;;;;;;;5071839;28;20024;-80
2020/12/16 18:26:03;;;;;;;29.92;8.70;;;;;;;;;;5073293;28;20032;-80
2020/12/16 18:28:29;;;;;;;26.58;8.35;;;;;;;;;;5080741;28;20031;-81
2020/12/16 18:31:15;;;;;;;11.68;7.72;;;;;;;;;;5079630;28;20028;-81
2020/12/16 18:36:44;;;;;;;18.00;9.15;;;;;;;;;;5085963;28;20047;-79
2020/12/16 18:39:11;;;;;;;34.65;9.13;;;;;;;;;;5066659;28;20032;-81
2020/12/16 18:41:43;;;;;;;15.57;8.18;;;;;;;;;;5067923;28;20037;-82
2020/12/16 18:44:10;;;;;;;26.75;9.00;;;;;;;;;;5070360;28;20092;-82
2020/12/16 18:46:36;;;;;;;12.70;7.32;;;;;;;;;;5065066;28;20049;-81
2020/12/16 18:49:03;;;;;;;16.83;9.68;;;;;;;;;;5063742;28;20029;-82
2020/12/16 18:51:29;;;;;;;25.95;11.27;;;;;;;;;;5068626;28;20051;-81
2020/12/16 18:53:55;;;;;;;15.68;7.47;;;;;;;;;;5068795;28;20020;-81
2020/12/16 18:56:21;;;;;;;16.58;7.15;;;;;;;;;;5067572;28;20416;-80
2020/12/16 18:58:47;;;;;;;13.30;6.10;;;;;;;;;;5071577;28;20557;-82
2020/12/16 19:01:13;;;;;;;20.58;7.82;;;;;;;;;;5068147;28;20045;-81
2020/12/16 19:03:42;;;;;;;14.68;7.20;;;;;;;;;;5064208;28;20044;-82
2020/12/16 19:06:08;;;;;;;16.60;7.78;;;;;;;;;;5066570;28;20028;-80
2020/12/16 19:08:33;;;;;;;10.82;6.57;;;;;;;;;;5070778;28;20095;-81
2020/12/16 19:10:59;;;;;;;9.85;6.40;;;;;;;;;;5062486;28;20427;-81
2020/12/16 19:13:25;;;;;;;13.55;6.97;;;;;;;;;;5069107;28;20020;-81
2020/12/16 19:15:51;;;;;;;31.05;8.00;;;;;;;;;;5070569;28;20040;-81
2020/12/16 19:18:17;;;;;;;27.10;7.97;;;;;;;;;;5067685;28;20498;-81
2020/12/16 19:20:44;;;;;;;13.43;6.85;;;;;;;;;;5068449;28;20047;-81
2020/12/16 19:23:11;;;;;;;9.02;5.68;;;;;;;;;;5067466;28;20027;-80
2020/12/16 19:25:37;;;;;;;7.70;5.10;;;;;;;;;;5067875;28;20032;-80
2020/12/16 19:28:03;;;;;;;7.85;5.10;;;;;;;;;;5067598;28;20031;-79
2020/12/16 19:30:30;;;;;;;10.30;4.22;;;;;;;;;;5064235;28;20039;-81
2020/12/16 19:32:56;;;;;;;6.88;4.22;;;;;;;;;;5067246;28;20059;-77
2020/12/16 19:35:22;;;;;;;11.27;3.80;;;;;;;;;;5061128;28;20032;-81
2020/12/16 19:37:48;;;;;;;6.85;4.80;;;;;;;;;;5069077;28;20028;-80
2020/12/16 19:40:16;;;;;;;9.05;3.92;;;;;;;;;;5064026;28;20025;-81
2020/12/16 19:42:43;;;;;;;10.80;4.22;;;;;;;;;;5067337;28;20416;-82
2020/12/16 19:45:14;;;;;;;6.10;3.85;;;;;;;;;;5063357;28;20035;-80
2020/12/16 19:47:40;;;;;;;7.78;4.45;;;;;;;;;;5060135;28;20028;-81
2020/12/16 19:50:07;;;;;;;10.27;4.10;;;;;;;;;;5061438;28;20040;-82
2020/12/16 19:52:33;;;;;;;8.82;4.97;;;;;;;;;;5059445;28;20029;-82
2020/12/16 19:54:59;;;;;;;16.27;4.18;;;;;;;;;;5066151;28;20068;-81
2020/12/16 19:57:25;;;;;;;25.23;4.28;;;;;;;;;;5067605;28;20028;-80
2020/12/16 19:59:51;;;;;;;6.85;3.90;;;;;;;;;;5069326;28;20021;-80
2020/12/16 20:04:38;;;;;;;10.98;4.45;;;;;;;;;;5063891;28;20359;-80
2020/12/16 20:07:04;;;;;;;11.02;4.90;;;;;;;;;;5058585;28;20033;-81
2020/12/16 20:09:30;;;;;;;8.98;4.55;;;;;;;;;;5061330;28;20071;-80
2020/12/16 20:11:56;;;;;;;11.05;4.68;;;;;;;;;;5053992;28;20053;-81
2020/12/16 20:14:23;;;;;;;7.60;4.45;;;;;;;;;;5054023;28;20045;-81
2020/12/16 20:16:50;;;;;;;7.13;4.65;;;;;;;;;;5051109;28;20060;-81
2020/12/16 20:19:17;;;;;;;9.55;4.47;;;;;;;;;;5058085;28;20025;-79
2020/12/16 20:21:43;;;;;;;6.57;4.32;;;;;;;;;;5051754;28;20037;-81
2020/12/16 20:24:09;;;;;;;9.45;4.28;;;;;;;;;;5056090;28;20035;-81
2020/12/16 20:26:36;;;;;;;6.82;4.20;;;;;;;;;;5053679;28;20736;-78
2020/12/16 20:29:02;;;;;;;6.15;4.07;;;;;;;;;;5049890;28;20083;-80
2020/12/16 20:35:13;;;;;;;5.50;3.63;;;;;;;;;;5056357;28;20060;-80
2020/12/16 20:53:45;;;;;;;22.48;18.02;;;;;;;;;;5037553;28;20033;-79
2020/12/16 21:00:09;;;;;;;8.05;5.75;;;;;;;;;;4986365;28;20085;-79
2020/12/16 21:42:41;;;;;;;7.03;3.60;;;;;;;;;;5055359;28;20036;-82
2020/12/16 21:48:11;;;;;;;7.78;3.17;;;;;;;;;;5053710;28;20028;-82
